Time;durP1;ratioP1;P1;durP2;ratioP2;P2;SDS_P1;SDS_P2;PMS_P1;PMS_P2;Temp;Humidity;BMP_temperature;BMP_pressure;BME280_temperature;BME280_humidity;BME280_pressure;Samples;Min_cycle;Max_cycle;Signal;HPM_P1;HPM_P2
2023/05/15 00:01:20;;;;;;;5.03;1.70;;;;;;;24.10;42.95;98938.94;4258293;33;34401;-65
2023/05/15 00:03:48;;;;;;;3.22;1.42;;;;;;;24.10;42.96;98938.94;4259340;33;34917;-65
2023/05/15 00:06:16;;;;;;;3.90;1.90;;;;;;;24.10;42.96;98938.94;4259171;33;34055;-65
2023/05/15 00:08:44;;;;;;;5.70;1.95;;;;;;;24.09;42.90;98926.41;4259352;33;32939;-65
2023/05/15 00:11:11;;;;;;;4.45;1.90;;;;;;;24.08;42.90;98931.03;4259274;33;34561;-66
2023/05/15 00:13:39;;;;;;;3.37;1.62;;;;;;;24.07;42.89;98934.84;4259193;33;34782;-65
2023/05/15 00:16:06;;;;;;;5.78;1.67;;;;;;;24.07;42.88;98944.91;4259269;33;33848;-65
2023/05/15 00:18:34;;;;;;;3.55;1.67;;;;;;;24.06;42.89;98946.81;4269786;33;34088;-65
2023/05/15 00:21:02;;;;;;;14.75;2.10;;;;;;;24.07;43.04;98953.91;4259214;33;34141;-69
2023/05/15 00:23:29;;;;;;;2.17;1.40;;;;;;;24.07;43.06;98948.47;4257996;33;34411;-70
2023/05/15 00:25:57;;;;;;;4.87;1.85;;;;;;;24.08;42.84;98952.00;4259409;33;34650;-64
2023/05/15 00:28:24;;;;;;;4.53;1.75;;;;;;;24.08;42.93;98968.34;4261095;33;33415;-65
2023/05/15 00:30:52;;;;;;;3.80;1.50;;;;;;;24.06;42.88;98959.59;4260991;33;34044;-64
2023/05/15 00:33:20;;;;;;;4.72;1.90;;;;;;;24.07;42.95;98958.53;4259757;33;34046;-64
2023/05/15 00:35:47;;;;;;;5.62;2.00;;;;;;;24.04;42.96;98951.69;4260875;33;33490;-65
2023/05/15 00:38:16;;;;;;;4.12;2.15;;;;;;;24.03;42.91;98952.75;4260974;33;33447;-65
2023/05/15 00:40:43;;;;;;;3.78;2.00;;;;;;;24.02;42.90;98945.66;4260880;33;33737;-65
2023/05/15 00:43:12;;;;;;;6.50;2.40;;;;;;;24.02;42.90;98939.41;4259566;33;33794;-65
2023/05/15 00:45:40;;;;;;;8.15;2.20;;;;;;;24.02;42.86;98944.84;4247968;33;34131;-65
2023/05/15 00:48:08;;;;;;;4.95;2.20;;;;;;;24.01;42.87;98945.91;4248210;33;33176;-65
2023/05/15 00:50:35;;;;;;;4.68;2.45;;;;;;;24.00;42.91;98939.63;4260685;33;33937;-65
2023/05/15 00:53:04;;;;;;;6.57;2.85;;;;;;;23.99;42.85;98935.25;4248312;33;34098;-65
2023/05/15 00:55:32;;;;;;;4.35;2.15;;;;;;;23.98;42.81;98928.16;4259666;33;34286;-65
2023/05/15 00:58:00;;;;;;;4.57;2.35;;;;;;;23.98;42.80;98935.50;4260874;33;33254;-64
2023/05/15 01:00:27;;;;;;;3.65;2.20;;;;;;;23.97;42.79;98920.22;4259764;33;34598;-64
2023/05/15 01:02:55;;;;;;;3.92;2.30;;;;;;;23.96;42.81;98921.31;4260821;33;34127;-65
2023/05/15 01:05:22;;;;;;;6.95;2.70;;;;;;;23.97;42.78;98917.50;4260709;33;33886;-65
2023/05/15 01:08:13;;;;;;;5.20;2.83;;;;;;;23.97;42.73;98909.31;4260880;33;32910;-66
2023/05/15 01:10:41;;;;;;;5.65;2.53;;;;;;;23.97;42.74;98910.16;4260825;33;34955;-65
2023/05/15 01:13:09;;;;;;;4.07;2.40;;;;;;;23.96;42.75;98891.31;4247872;33;33902;-65
2023/05/15 01:15:36;;;;;;;5.43;2.92;;;;;;;23.95;42.80;98897.84;4259405;33;33934;-65
2023/05/15 01:18:04;;;;;;;6.22;2.80;;;;;;;23.93;42.86;98890.78;4260717;33;32973;-65
2023/05/15 01:20:33;;;;;;;5.20;2.72;;;;;;;23.93;42.77;98895.41;4260753;33;34077;-65
2023/05/15 01:23:08;;;;;;;4.35;2.45;;;;;;;23.92;42.80;98885.56;4259421;33;33701;-65
2023/05/15 01:25:55;;;;;;;6.72;2.85;;;;;;;23.91;42.79;98879.28;4271205;33;34607;-64
2023/05/15 01:28:33;;;;;;;4.07;2.50;;;;;;;23.93;42.78;98879.06;4259576;33;33286;-64
2023/05/15 01:31:04;;;;;;;4.85;2.80;;;;;;;23.94;42.84;98886.13;4248115;33;33716;-65
2023/05/15 01:33:34;;;;;;;6.43;2.67;;;;;;;23.91;42.79;98883.91;4259299;33;34014;-65
2023/05/15 01:36:23;;;;;;;4.15;2.55;;;;;;;23.90;42.83;98883.09;4271087;33;34531;-65
2023/05/15 01:38:56;;;;;;;6.22;2.53;;;;;;;23.95;42.76;98882.34;4258830;33;33324;-65
2023/05/15 01:41:50;;;;;;;6.18;3.12;;;;;;;23.90;42.79;98879.53;4269970;33;33939;-64
2023/05/15 01:44:43;;;;;;;7.40;3.60;;;;;;;23.91;42.76;98870.28;4259371;33;33515;-64
2023/05/15 01:47:16;;;;;;;5.18;3.03;;;;;;;23.91;42.74;98883.91;4260346;33;33689;-64
2023/05/15 01:49:44;;;;;;;5.43;3.17;;;;;;;23.88;42.79;98889.88;4247659;33;33627;-64
2023/05/15 01:52:16;;;;;;;4.35;2.55;;;;;;;23.89;42.76;98883.34;4259132;33;34764;-64
2023/05/15 01:54:44;;;;;;;5.12;2.67;;;;;;;23.87;42.75;98886.31;4270830;33;33866;-65
2023/05/15 01:57:11;;;;;;;4.75;2.80;;;;;;;23.87;42.77;98877.31;4247604;33;33937;-64
2023/05/15 01:59:39;;;;;;;3.97;2.37;;;;;;;23.86;42.82;98881.13;4260679;33;33603;-64
2023/05/15 02:02:07;;;;;;;6.62;2.72;;;;;;;23.86;42.85;98889.28;4247469;33;33916;-64
2023/05/15 02:04:35;;;;;;;4.45;2.92;;;;;;;23.86;42.75;98886.56;4247645;33;33650;-64
2023/05/15 02:07:03;;;;;;;4.60;2.80;;;;;;;23.85;42.78;98896.66;4247497;33;33981;-65
2023/05/15 02:09:31;;;;;;;5.85;3.40;;;;;;;23.83;42.76;98893.38;4259149;33;33418;-65
2023/05/15 02:12:00;;;;;;;5.62;2.72;;;;;;;23.83;42.72;98898.81;4247799;33;32781;-66
2023/05/15 02:14:28;;;;;;;5.65;3.50;;;;;;;23.83;42.71;98906.16;4247609;33;34740;-64
2023/05/15 02:16:55;;;;;;;6.82;3.45;;;;;;;23.83;42.70;98919.78;4260396;33;33724;-65
2023/05/15 02:19:23;;;;;;;4.95;3.28;;;;;;;23.82;42.71;98931.72;4259156;33;34120;-65
2023/05/15 02:21:51;;;;;;;3.95;2.85;;;;;;;23.81;42.73;98933.63;4270942;33;33924;-64
2023/05/15 02:24:18;;;;;;;5.22;3.37;;;;;;;23.81;42.73;98932.81;4260305;33;33795;-64
2023/05/15 02:27:10;;;;;;;7.32;3.40;;;;;;;23.81;42.71;98935.53;4260210;33;34116;-64
2023/05/15 02:30:26;;;;;;;4.85;3.22;;;;;;;23.81;42.68;98941.81;4259104;33;33363;-64
2023/05/15 02:33:00;;;;;;;5.53;3.40;;;;;;;23.83;42.64;98941.56;4246287;33;34618;-65
2023/05/15 02:35:47;;;;;;;4.47;3.10;;;;;;;23.80;42.69;98942.88;4247622;33;34144;-65
2023/05/15 02:38:16;;;;;;;5.60;3.20;;;;;;;23.80;42.68;98936.63;4260122;33;34202;-65
2023/05/15 02:40:45;;;;;;;7.78;3.17;;;;;;;23.76;42.73;98928.09;4260140;33;33892;-65
2023/05/15 02:43:13;;;;;;;6.75;3.15;;;;;;;23.77;42.70;98929.75;4247322;33;33404;-65
2023/05/15 02:45:59;;;;;;;5.25;3.55;;;;;;;23.77;42.69;98923.47;4249397;33;34684;-64
2023/05/15 02:48:27;;;;;;;4.90;2.85;;;;;;;23.76;42.68;98906.31;4260097;33;33816;-65
2023/05/15 02:50:55;;;;;;;6.28;3.35;;;;;;;23.76;42.73;98914.50;4257904;33;33567;-65
2023/05/15 02:53:22;;;;;;;9.50;3.60;;;;;;;23.76;42.76;98919.94;4247260;33;33576;-64
2023/05/15 02:55:50;;;;;;;6.12;3.22;;;;;;;23.76;42.74;98913.66;4260007;33;34018;-65
2023/05/15 02:58:17;;;;;;;6.90;3.47;;;;;;;23.75;42.72;98912.03;4260370;33;33988;-65
2023/05/15 03:00:45;;;;;;;5.28;3.25;;;;;;;23.74;42.69;98900.31;4260098;33;33464;-65
2023/05/15 03:03:13;;;;;;;6.60;3.25;;;;;;;23.73;42.75;98895.91;4259943;33;33517;-65
2023/05/15 03:05:40;;;;;;;4.55;3.25;;;;;;;23.73;42.75;98893.19;4259981;33;33520;-65
2023/05/15 03:08:07;;;;;;;4.82;3.15;;;;;;;23.74;42.72;98902.22;4260067;33;33898;-64
2023/05/15 03:10:35;;;;;;;5.90;3.62;;;;;;;23.73;42.79;98893.19;4259965;33;33103;-65
2023/05/15 03:13:03;;;;;;;5.20;3.47;;;;;;;23.73;42.77;98897.81;4260333;33;33516;-64
2023/05/15 03:15:30;;;;;;;5.62;3.20;;;;;;;23.74;42.76;98885.88;4260110;33;33712;-64
2023/05/15 03:17:58;;;;;;;6.18;3.95;;;;;;;23.73;42.71;98868.69;4259899;33;34342;-64
2023/05/15 03:20:25;;;;;;;4.87;3.20;;;;;;;23.73;42.70;98851.50;4259959;33;34162;-64
2023/05/15 03:22:53;;;;;;;5.75;3.75;;;;;;;23.73;42.65;98846.06;4260177;33;33919;-65
2023/05/15 03:25:21;;;;;;;5.87;3.55;;;;;;;23.72;42.65;98863.50;4258953;33;33686;-65
2023/05/15 03:27:48;;;;;;;8.88;3.80;;;;;;;23.73;42.70;98862.41;4258622;33;34775;-65
2023/05/15 03:30:15;;;;;;;6.53;3.60;;;;;;;23.72;42.71;98853.41;4247024;33;32804;-66
2023/05/15 03:32:43;;;;;;;6.75;3.80;;;;;;;23.72;42.73;98841.69;4259881;33;34367;-65
2023/05/15 03:35:11;;;;;;;6.62;3.62;;;;;;;23.71;42.68;98843.59;4259807;33;34125;-64
2023/05/15 03:37:38;;;;;;;7.62;4.05;;;;;;;23.71;42.69;98837.34;4259770;33;33716;-65
2023/05/15 03:40:07;;;;;;;7.65;4.03;;;;;;;23.70;42.76;98852.03;4254204;33;34535;-65
2023/05/15 03:42:37;;;;;;;5.97;3.87;;;;;;;23.71;42.75;98853.69;4245448;33;33854;-64
2023/05/15 03:45:05;;;;;;;7.00;4.30;;;;;;;23.70;42.75;98849.31;4245448;33;33725;-64
2023/05/15 03:47:33;;;;;;;5.32;3.65;;;;;;;23.70;42.74;98852.84;4244216;33;33883;-64
2023/05/15 03:50:00;;;;;;;6.85;3.75;;;;;;;23.70;42.76;98841.13;4245541;33;33083;-64
2023/05/15 03:52:32;;;;;;;15.25;4.37;;;;;;;23.68;42.77;98834.03;4245372;33;33493;-65
2023/05/15 03:55:00;;;;;;;6.47;3.90;;;;;;;23.70;42.77;98847.41;4244181;33;33790;-66
2023/05/15 03:57:28;;;;;;;7.30;4.00;;;;;;;23.68;42.78;98847.63;4243971;33;33998;-69
2023/05/15 03:59:55;;;;;;;5.95;3.37;;;;;;;23.71;42.75;98842.78;4245085;33;33451;-70
2023/05/15 04:02:23;;;;;;;13.35;3.80;;;;;;;23.70;42.74;98830.25;4253899;33;34641;-69
2023/05/15 04:04:51;;;;;;;6.65;4.00;;;;;;;23.70;42.89;98822.91;4261269;33;34009;-70
2023/05/15 04:07:18;;;;;;;5.75;3.70;;;;;;;23.70;42.86;98813.91;4260768;33;34012;-70
2023/05/15 04:09:46;;;;;;;15.82;3.87;;;;;;;23.69;42.81;98821.25;4261108;33;33262;-68
2023/05/15 04:12:14;;;;;;;6.60;3.28;;;;;;;23.68;42.69;98816.84;4261103;33;33807;-69
2023/05/15 04:14:41;;;;;;;5.50;2.92;;;;;;;23.67;42.55;98810.59;4260939;33;34007;-69
2023/05/15 04:17:09;;;;;;;4.40;2.55;;;;;;;23.66;42.50;98814.41;4260877;33;34200;-68
2023/05/15 04:19:37;;;;;;;7.40;2.83;;;;;;;23.67;42.42;98818.75;4261127;33;33745;-68
2023/05/15 04:22:06;;;;;;;5.87;2.75;;;;;;;23.67;42.36;98817.94;4260896;33;34001;-69
2023/05/15 04:24:33;;;;;;;6.22;2.60;;;;;;;23.67;42.33;98813.31;4260971;33;34786;-69
2023/05/15 04:27:01;;;;;;;4.40;2.45;;;;;;;23.67;42.28;98815.22;4261027;33;34438;-68
2023/05/15 04:29:28;;;;;;;9.07;2.72;;;;;;;23.65;42.24;98820.94;4260950;33;33480;-68
2023/05/15 04:31:56;;;;;;;8.05;2.97;;;;;;;23.65;42.26;98825.56;4260866;33;33862;-69
2023/05/15 04:34:24;;;;;;;6.75;2.47;;;;;;;23.65;42.24;98845.44;4260964;33;33937;-69
2023/05/15 04:36:51;;;;;;;3.60;2.37;;;;;;;23.65;42.22;98853.59;4260778;33;34675;-68
2023/05/15 04:39:18;;;;;;;5.18;2.80;;;;;;;23.64;42.19;98851.97;4260132;33;34090;-68
2023/05/15 04:41:46;;;;;;;4.07;2.50;;;;;;;23.65;42.14;98852.78;4245867;33;33849;-68
2023/05/15 04:44:14;;;;;;;4.28;2.45;;;;;;;23.65;42.13;98864.50;4246832;33;34064;-69
2023/05/15 04:46:41;;;;;;;4.05;2.22;;;;;;;23.64;42.15;98862.00;4246740;33;34694;-70
2023/05/15 04:49:09;;;;;;;6.05;2.60;;;;;;;23.63;42.14;98861.16;4246608;33;33631;-70
2023/05/15 04:51:36;;;;;;;4.30;2.12;;;;;;;23.64;42.14;98867.44;4254273;33;33999;-69
2023/05/15 04:54:04;;;;;;;3.90;2.20;;;;;;;23.63;42.10;98884.84;4248933;33;34709;-68
2023/05/15 04:56:31;;;;;;;5.15;2.47;;;;;;;23.62;42.11;98885.91;4246961;33;33516;-70
2023/05/15 04:58:59;;;;;;;3.53;2.28;;;;;;;23.62;42.10;98891.38;4245319;33;32958;-70
2023/05/15 05:01:27;;;;;;;4.20;2.42;;;;;;;23.61;42.10;98893.28;4246735;33;34759;-70
2023/05/15 05:03:55;;;;;;;3.42;2.17;;;;;;;23.61;42.11;98896.00;4246637;33;33847;-71
2023/05/15 05:06:23;;;;;;;4.20;2.62;;;;;;;23.61;42.08;98890.56;4246391;33;33862;-69
2023/05/15 05:08:50;;;;;;;3.47;2.20;;;;;;;23.62;42.07;98894.09;4246967;33;33460;-71
2023/05/15 05:11:18;;;;;;;3.90;2.30;;;;;;;23.60;42.06;98891.62;4246612;33;33977;-70
2023/05/15 05:13:46;;;;;;;3.47;2.05;;;;;;;23.61;42.05;98893.28;4245830;33;33769;-70
2023/05/15 05:16:13;;;;;;;7.18;2.87;;;;;;;23.60;42.05;98896.25;4244673;33;33602;-70
2023/05/15 05:18:41;;;;;;;5.65;2.30;;;;;;;23.60;42.01;98901.69;4260739;33;33586;-70
2023/05/15 05:21:09;;;;;;;5.35;2.12;;;;;;;23.60;42.02;98909.88;4260668;33;33652;-70
2023/05/15 05:23:37;;;;;;;5.87;2.33;;;;;;;23.59;42.00;98911.75;4260758;33;34445;-71
2023/05/15 05:26:04;;;;;;;4.12;2.12;;;;;;;23.58;41.98;98901.94;4260473;33;34066;-71
2023/05/15 05:28:32;;;;;;;4.37;2.05;;;;;;;23.58;41.99;98910.09;4260743;33;34409;-71
2023/05/15 05:31:01;;;;;;;4.15;2.00;;;;;;;23.58;41.97;98906.56;4260677;33;34727;-70
2023/05/15 05:33:29;;;;;;;6.60;2.23;;;;;;;23.59;41.96;98902.75;4260564;33;33986;-70
2023/05/15 05:35:56;;;;;;;2.58;2.08;;;;;;;23.59;41.96;98892.69;4260683;33;34302;-71
2023/05/15 05:38:26;;;;;;;3.97;2.20;;;;;;;23.59;41.95;98889.97;4260556;33;32969;-69
2023/05/15 05:40:54;;;;;;;;;;;;;;;23.59;41.95;98875.53;4250512;33;34958;-70
2023/05/15 05:43:21;;;;;;;3.35;1.92;;;;;;;23.66;41.76;98877.03;4246574;33;34068;-71
2023/05/15 05:45:48;;;;;;;3.20;1.90;;;;;;;23.59;41.84;98887.22;4246363;33;33856;-71
2023/05/15 05:48:16;;;;;;;4.97;1.80;;;;;;;23.56;41.91;98893.19;4246265;33;33967;-70
2023/05/15 05:50:43;;;;;;;5.07;2.30;;;;;;;23.55;41.95;98899.72;4246424;33;33434;-70
2023/05/15 05:53:11;;;;;;;4.60;2.30;;;;;;;23.56;41.97;98900.53;4242737;33;34667;-70
2023/05/15 05:55:39;;;;;;;4.35;2.40;;;;;;;23.56;42.01;98906.00;4232107;33;34318;-70
2023/05/15 05:58:07;;;;;;;2.72;1.90;;;;;;;23.58;42.05;98909.28;4242681;33;33425;-70
2023/05/15 06:00:44;;;;;;;3.25;1.80;;;;;;;23.59;42.09;98910.91;4241836;33;33843;-71
2023/05/15 06:03:12;;;;;;;3.20;1.98;;;;;;;23.59;42.08;98903.56;4232180;33;33791;-70
2023/05/15 06:05:40;;;;;;;4.47;2.20;;;;;;;23.60;42.09;98897.06;4232087;33;34272;-70
2023/05/15 06:08:08;;;;;;;3.12;1.92;;;;;;;23.62;42.07;98902.25;4232190;33;33234;-70
2023/05/15 06:10:35;;;;;;;4.47;1.85;;;;;;;23.62;42.09;98905.81;4232271;33;34181;-70
2023/05/15 06:13:03;;;;;;;3.05;1.40;;;;;;;23.64;42.10;98906.44;4232347;33;34042;-71
2023/05/15 06:15:30;;;;;;;4.93;2.20;;;;;;;23.66;42.10;98914.34;4232170;33;33974;-70
2023/05/15 06:17:58;;;;;;;2.80;1.70;;;;;;;23.66;42.11;98920.59;4232187;33;33258;-70
2023/05/15 06:20:26;;;;;;;2.42;1.80;;;;;;;23.67;42.12;98908.63;4232099;33;33406;-70
2023/05/15 06:22:53;;;;;;;3.10;2.15;;;;;;;23.70;42.14;98907.31;4232148;33;34920;-69
2023/05/15 06:25:21;;;;;;;5.32;1.52;;;;;;;23.71;42.15;98929.94;4231980;33;35263;-71
2023/05/15 06:27:49;;;;;;;2.72;1.40;;;;;;;23.72;42.16;98920.69;4232045;33;33308;-70
2023/05/15 06:30:16;;;;;;;2.85;1.75;;;;;;;23.74;42.16;98926.72;4229898;33;83597;-63
2023/05/15 06:32:44;;;;;;;2.80;1.55;;;;;;;23.74;42.18;98926.72;4231878;33;34542;-63
2023/05/15 06:35:12;;;;;;;3.83;1.60;;;;;;;23.76;42.19;98927.28;4232092;33;33811;-72
2023/05/15 06:37:39;;;;;;;4.18;2.05;;;;;;;23.77;42.19;98935.19;4232036;33;33404;-72
2023/05/15 06:40:08;;;;;;;2.95;1.30;;;;;;;23.78;42.19;98919.69;4231919;33;33908;-75
2023/05/15 06:42:35;;;;;;;3.25;1.75;;;;;;;23.78;42.23;98909.63;4232264;33;34145;-74
2023/05/15 06:45:03;;;;;;;3.22;1.70;;;;;;;23.79;42.28;98908.56;4231725;33;34128;-74
2023/05/15 06:47:31;;;;;;;1.95;1.25;;;;;;;23.80;42.31;98907.47;4231971;33;33840;-74
2023/05/15 06:49:58;;;;;;;3.30;1.40;;;;;;;23.81;42.38;98900.94;4231998;33;33977;-75
2023/05/15 06:52:26;;;;;;;3.72;1.92;;;;;;;23.82;42.42;98897.13;4242230;33;33899;-74
2023/05/15 06:54:54;;;;;;;3.12;1.65;;;;;;;23.84;42.48;98900.44;4259065;33;33806;-73
2023/05/15 06:57:21;;;;;;;5.32;1.75;;;;;;;23.86;42.49;98894.75;4260200;33;33324;-73
2023/05/15 06:59:48;;;;;;;3.60;1.45;;;;;;;23.86;42.56;98892.00;4260010;33;33705;-74
2023/05/15 07:02:16;;;;;;;4.18;1.60;;;;;;;23.88;42.58;98898.06;4260096;33;34991;-73
2023/05/15 07:04:44;;;;;;;4.47;1.70;;;;;;;23.89;42.62;98905.16;4260062;33;33021;-68
2023/05/15 07:07:12;;;;;;;3.90;1.60;;;;;;;23.89;42.68;98911.41;4246098;33;34471;-72
2023/05/15 07:09:40;;;;;;;3.17;1.58;;;;;;;23.90;42.69;98909.50;4246374;33;33460;-73
2023/05/15 07:12:07;;;;;;;2.75;1.45;;;;;;;23.90;42.72;98918.50;4258750;33;34732;-72
2023/05/15 07:14:35;;;;;;;3.35;1.75;;;;;;;23.91;42.75;98928.31;4259886;33;34878;-73
2023/05/15 07:17:03;;;;;;;4.82;1.50;;;;;;;23.91;42.75;98925.59;4260018;33;33634;-75
2023/05/15 07:19:30;;;;;;;2.80;1.67;;;;;;;23.92;42.78;98929.16;4259956;33;33950;-73
2023/05/15 07:21:58;;;;;;;2.47;1.45;;;;;;;23.92;42.81;98931.88;4257484;33;33914;-73
2023/05/15 07:24:27;;;;;;;3.03;1.52;;;;;;;23.91;42.83;98939.22;4249451;33;34743;-69
2023/05/15 07:26:55;;;;;;;2.65;1.50;;;;;;;23.93;42.83;98948.00;4245710;33;33424;-69
2023/05/15 07:29:25;;;;;;;;;;;;;;;23.94;42.85;98951.53;4245848;33;34011;-75
2023/05/15 07:31:53;;;;;;;2.33;1.33;;;;;;;24.03;42.62;98958.22;4245816;33;34362;-74
2023/05/15 07:34:20;;;;;;;6.70;1.70;;;;;;;23.95;42.74;98944.19;4245474;33;34837;-74
2023/05/15 07:36:48;;;;;;;2.65;1.52;;;;;;;23.93;42.76;98936.28;4249296;33;33543;-73
2023/05/15 07:39:16;;;;;;;3.58;1.73;;;;;;;23.91;42.76;98931.06;4259136;33;33998;-75
2023/05/15 07:41:45;;;;;;;3.65;1.70;;;;;;;23.91;42.75;98922.88;4245477;33;34032;-75
2023/05/15 07:44:13;;;;;;;3.72;1.62;;;;;;;23.91;42.74;98920.16;4245675;33;34765;-74
2023/05/15 07:46:41;;;;;;;2.72;1.30;;;;;;;23.91;42.75;98928.31;4245696;33;32558;-73
2023/05/15 07:49:08;;;;;;;4.45;1.48;;;;;;;23.91;42.80;98924.78;4245360;33;34588;-74
2023/05/15 07:51:36;;;;;;;4.22;1.92;;;;;;;23.91;42.86;98927.50;4245205;33;34793;-75
2023/05/15 07:54:04;;;;;;;4.40;1.55;;;;;;;23.91;42.91;98920.16;4245362;33;34588;-74
2023/05/15 07:56:32;;;;;;;8.05;1.80;;;;;;;23.91;42.96;98916.59;4245423;33;34159;-72
2023/05/15 07:58:59;;;;;;;4.07;1.40;;;;;;;23.90;42.99;98918.50;4245154;33;33730;-73
2023/05/15 08:01:27;;;;;;;4.25;1.65;;;;;;;23.91;43.05;98933.78;4245386;33;35416;-74
2023/05/15 08:03:57;;;;;;;3.85;1.33;;;;;;;23.92;43.10;98950.94;4245300;33;34181;-74
2023/05/15 08:06:25;;;;;;;5.05;1.90;;;;;;;23.91;43.14;98965.66;4245095;33;33467;-74
2023/05/15 08:08:53;;;;;;;3.60;1.65;;;;;;;23.90;43.18;98959.38;4245198;33;33986;-69
2023/05/15 08:11:20;;;;;;;4.72;1.80;;;;;;;23.90;43.17;98945.75;4245134;33;33856;-74
2023/05/15 08:13:48;;;;;;;5.22;1.62;;;;;;;23.91;43.16;98946.56;4245152;33;34750;-74
2023/05/15 08:16:15;;;;;;;4.45;1.87;;;;;;;23.91;43.19;98949.31;4245203;33;33306;-74
2023/05/15 08:18:43;;;;;;;7.93;1.77;;;;;;;23.91;43.22;98952.84;4243753;33;34020;-74
2023/05/15 08:21:11;;;;;;;3.12;1.58;;;;;;;23.90;43.23;98951.19;4245136;33;34961;-74
2023/05/15 08:23:38;;;;;;;2.90;1.73;;;;;;;23.91;43.22;98957.47;4244943;33;34927;-75
2023/05/15 08:26:06;;;;;;;5.55;2.03;;;;;;;23.90;43.24;98961.28;4244913;33;33331;-75
2023/05/15 08:28:33;;;;;;;4.95;1.90;;;;;;;23.91;43.25;98962.91;4244932;33;33522;-74
2023/05/15 08:31:01;;;;;;;3.55;1.95;;;;;;;23.90;43.25;98958.56;4244900;33;33501;-75
2023/05/15 08:33:28;;;;;;;3.05;1.60;;;;;;;23.90;43.26;98956.66;4244657;33;34040;-74
2023/05/15 08:35:57;;;;;;;6.03;2.25;;;;;;;23.90;43.26;98950.38;4244878;33;33558;-75
2023/05/15 08:38:24;;;;;;;5.75;1.70;;;;;;;23.91;43.24;98950.13;4245176;33;33960;-74
2023/05/15 08:40:52;;;;;;;6.55;1.90;;;;;;;23.91;43.26;98949.31;4252194;33;33924;-73
2023/05/15 08:43:20;;;;;;;4.57;1.90;;;;;;;23.91;43.29;98941.13;4250195;33;34496;-72
2023/05/15 08:45:48;;;;;;;4.07;1.70;;;;;;;23.89;43.25;98937.84;4262188;33;34422;-71
2023/05/15 08:48:16;;;;;;;4.10;1.77;;;;;;;23.90;43.27;98939.47;4247736;33;33644;-68
2023/05/15 08:50:44;;;;;;;12.30;2.05;;;;;;;23.89;43.34;98944.09;4246854;33;34696;-68
2023/05/15 08:53:12;;;;;;;5.75;2.00;;;;;;;23.89;43.30;98944.09;4231264;33;34544;-68
2023/05/15 08:55:40;;;;;;;6.47;2.25;;;;;;;23.89;43.35;98943.28;4232517;33;33194;-68
2023/05/15 08:58:08;;;;;;;4.87;2.05;;;;;;;23.89;43.34;98937.84;4228912;33;33581;-73
2023/05/15 09:00:36;;;;;;;3.55;1.77;;;;;;;23.88;43.39;98934.28;4218847;34;34020;-68
2023/05/15 09:03:05;;;;;;;4.22;2.30;;;;;;;23.89;43.38;98932.38;4218560;34;34135;-68
2023/05/15 09:05:33;;;;;;;5.00;1.90;;;;;;;23.88;43.36;98934.28;4218671;33;33866;-68
2023/05/15 09:08:01;;;;;;;4.43;2.00;;;;;;;23.88;43.38;98945.19;4217391;34;33508;-72
2023/05/15 09:10:29;;;;;;;4.43;1.87;;;;;;;23.88;43.41;98955.25;4217261;34;34011;-73
2023/05/15 09:12:56;;;;;;;3.92;1.75;;;;;;;23.89;43.45;98959.63;4217228;34;34805;-73
2023/05/15 09:15:23;;;;;;;6.68;2.10;;;;;;;23.88;43.46;98964.25;4228987;33;34539;-75
2023/05/15 09:17:52;;;;;;;3.53;1.80;;;;;;;23.88;43.44;98960.72;4218698;34;34164;-70
2023/05/15 09:20:24;;;;;;;6.45;1.90;;;;;;;23.86;43.37;98966.41;4228853;33;34369;-64
2023/05/15 09:22:52;;;;;;;4.05;2.15;;;;;;;23.87;43.35;98964.50;4218612;34;33975;-64
2023/05/15 09:25:38;;;;;;;6.28;1.95;;;;;;;23.86;43.19;98979.19;4218453;34;33504;-64
2023/05/15 09:28:20;;;;;;;4.47;1.83;;;;;;;23.87;43.27;98978.13;4218438;34;33981;-63
2023/05/15 09:30:47;;;;;;;4.32;1.65;;;;;;;23.84;43.32;98979.44;4228706;33;33830;-63
2023/05/15 09:33:15;;;;;;;4.30;2.00;;;;;;;23.85;43.31;98985.72;4229005;33;33796;-63
2023/05/15 09:35:44;;;;;;;3.80;1.75;;;;;;;23.83;43.30;98999.59;4238300;33;33346;-63
2023/05/15 09:38:12;;;;;;;4.18;1.90;;;;;;;23.84;43.25;99003.97;4232352;33;33880;-63
2023/05/15 09:40:39;;;;;;;6.30;2.35;;;;;;;23.83;43.21;98996.88;4242538;33;34878;-63
2023/05/15 09:43:10;;;;;;;3.12;1.75;;;;;;;23.83;43.20;98998.78;4232093;33;33971;-63
2023/05/15 09:45:37;;;;;;;5.68;1.90;;;;;;;23.81;43.20;98995.47;4232386;33;33317;-63
2023/05/15 09:48:05;;;;;;;3.78;1.70;;;;;;;23.81;43.17;98999.00;4232205;33;33844;-63
2023/05/15 09:50:37;;;;;;;3.42;2.05;;;;;;;23.81;43.15;99001.72;4232195;33;33401;-63
2023/05/15 09:53:05;;;;;;;4.55;2.20;;;;;;;23.80;43.16;98993.81;4254174;33;33810;-63
2023/05/15 09:55:33;;;;;;;3.85;2.08;;;;;;;23.80;43.14;98999.25;4255626;33;33441;-63
2023/05/15 09:58:06;;;;;;;5.05;1.90;;;;;;;23.79;43.13;98994.91;4233699;33;33735;-63
2023/05/15 10:00:34;;;;;;;5.75;2.00;;;;;;;23.78;43.12;98998.66;4254815;33;34097;-64
2023/05/15 10:03:03;;;;;;;4.45;2.00;;;;;;;23.78;43.07;99004.13;4270098;33;34813;-64
2023/05/15 10:05:30;;;;;;;5.68;1.98;;;;;;;23.77;43.05;99003.31;4260922;33;33539;-63
2023/05/15 10:08:10;;;;;;;4.55;2.05;;;;;;;23.78;43.04;99004.13;4260915;33;34871;-62
2023/05/15 10:10:38;;;;;;;3.67;2.10;;;;;;;23.78;43.00;98994.06;4249682;33;34728;-65
2023/05/15 10:13:06;;;;;;;3.55;1.90;;;;;;;23.77;43.02;98995.13;4264510;33;33660;-63
2023/05/15 10:15:34;;;;;;;4.90;1.98;;;;;;;23.75;43.05;99001.91;4259809;33;33456;-63
2023/05/15 10:18:02;;;;;;;2.72;1.50;;;;;;;23.76;42.99;99004.38;4254982;33;34608;-62
2023/05/15 10:20:31;;;;;;;4.40;2.10;;;;;;;23.77;43.02;99005.19;4260513;33;33877;-62
2023/05/15 10:22:59;;;;;;;9.50;1.90;;;;;;;23.77;43.04;99000.56;4247475;33;34068;-62
2023/05/15 10:25:38;;;;;;;5.62;1.75;;;;;;;23.76;43.11;98996.22;4247467;33;34352;-62
2023/05/15 10:28:09;;;;;;;4.57;2.03;;;;;;;23.77;43.09;99003.31;4263074;33;34075;-63
2023/05/15 10:30:37;;;;;;;4.03;1.70;;;;;;;23.77;43.09;99002.47;4274708;33;33929;-63
2023/05/15 10:33:05;;;;;;;4.57;1.90;;;;;;;23.75;43.08;99001.91;4274722;33;33963;-63
2023/05/15 10:35:33;;;;;;;4.40;1.83;;;;;;;23.75;43.07;99004.63;4264345;33;33595;-62
2023/05/15 10:38:03;;;;;;;3.37;1.80;;;;;;;23.74;43.03;99008.44;4259946;33;34068;-62
2023/05/15 10:40:30;;;;;;;3.00;1.70;;;;;;;23.73;43.03;98999.41;4252264;33;33350;-62
2023/05/15 10:42:59;;;;;;;3.70;1.65;;;;;;;23.75;42.97;99015.53;4233214;33;33963;-62
2023/05/15 10:45:27;;;;;;;7.35;1.95;;;;;;;23.73;42.98;99006.75;4239992;33;33441;-63
2023/05/15 10:47:54;;;;;;;4.60;2.00;;;;;;;23.73;42.98;99012.22;4221742;33;34606;-63
2023/05/15 10:50:25;;;;;;;3.37;1.70;;;;;;;23.72;42.97;99005.94;4244558;33;33855;-63
2023/05/15 10:52:54;;;;;;;4.45;1.80;;;;;;;23.70;42.99;99010.81;4244185;33;34833;-64
2023/05/15 10:55:21;;;;;;;6.20;1.70;;;;;;;23.71;42.97;99006.19;4243967;33;33620;-63
2023/05/15 10:57:49;;;;;;;5.47;1.98;;;;;;;23.70;42.94;99002.66;4245813;33;33940;-64
2023/05/15 11:00:27;;;;;;;4.85;2.05;;;;;;;23.71;42.91;99004.28;4246039;33;33975;-64
2023/05/15 11:02:57;;;;;;;3.17;1.95;;;;;;;23.72;42.88;99005.13;4249596;33;34550;-63
2023/05/15 11:05:25;;;;;;;3.08;1.77;;;;;;;23.72;42.88;98999.69;4249961;33;34098;-62
2023/05/15 11:08:13;;;;;;;4.95;2.10;;;;;;;23.71;42.86;99000.75;4274390;33;34023;-62
2023/05/15 11:10:41;;;;;;;4.03;1.43;;;;;;;23.72;42.86;99002.41;4244892;33;34791;-62
2023/05/15 11:13:10;;;;;;;2.72;1.70;;;;;;;23.71;42.86;98992.59;4260020;33;34562;-64
2023/05/15 11:15:45;;;;;;;3.60;1.63;;;;;;;23.71;42.85;98998.84;4258928;33;33325;-62
2023/05/15 11:18:13;;;;;;;3.15;1.60;;;;;;;23.71;42.83;98987.97;4259600;33;33946;-62
2023/05/15 11:21:00;;;;;;;3.47;1.62;;;;;;;23.70;42.82;98994.47;4258783;33;34030;-63
2023/05/15 11:23:28;;;;;;;3.08;1.60;;;;;;;23.72;42.79;98989.59;4269889;33;33912;-63
2023/05/15 11:25:56;;;;;;;4.62;1.85;;;;;;;23.70;42.80;98988.22;4239074;33;33404;-63
2023/05/15 11:28:24;;;;;;;3.25;1.62;;;;;;;23.69;42.80;98992.84;4259766;33;34564;-65
2023/05/15 11:30:58;;;;;;;2.53;1.60;;;;;;;23.70;42.83;98990.94;4260132;33;33882;-62
2023/05/15 11:33:28;;;;;;;3.10;1.77;;;;;;;23.68;42.79;98991.16;4259801;33;34532;-64
2023/05/15 11:35:57;;;;;;;3.30;1.70;;;;;;;23.70;42.78;99001.84;4258660;33;34032;-62
2023/05/15 11:38:25;;;;;;;3.17;1.80;;;;;;;23.68;42.77;98988.44;4259871;33;33879;-62
2023/05/15 11:40:55;;;;;;;3.50;1.50;;;;;;;23.69;42.75;98984.66;4246435;33;34003;-62
2023/05/15 11:43:26;;;;;;;3.37;1.75;;;;;;;23.68;42.76;98989.25;4259579;33;34893;-62